Time;durP1;ratioP1;P1;durP2;ratioP2;P2;SDS_P1;SDS_P2;PMS_P1;PMS_P2;Temp;Humidity;BMP_temperature;BMP_pressure;BME280_temperature;BME280_humidity;BME280_pressure;Samples;Min_cycle;Max_cycle;Signal;HPM_P1;HPM_P2
2022/05/04 00:00:46;;;;;;;3.05;1.40;;;;;;;10.66;100.00;101311.13;5067461;28;20024;-79
2022/05/04 00:03:12;;;;;;;4.03;2.15;;;;;;;10.88;100.00;101345.50;5068019;28;20037;-77
2022/05/04 00:05:38;;;;;;;3.30;1.90;;;;;;;10.92;100.00;101354.91;5031426;28;20528;-78
2022/05/04 00:08:04;;;;;;;2.67;1.48;;;;;;;10.94;100.00;101352.06;5071753;28;20028;-77
2022/05/04 00:10:30;;;;;;;3.75;1.70;;;;;;;10.90;100.00;101356.94;5057653;28;20060;-78
2022/05/04 00:12:57;;;;;;;4.82;1.90;;;;;;;10.92;100.00;101357.59;5048539;28;20068;-78
2022/05/04 00:15:23;;;;;;;8.35;2.55;;;;;;;10.93;100.00;101356.63;5062794;28;20051;-79
2022/05/04 00:17:49;;;;;;;3.20;1.88;;;;;;;10.94;100.00;101347.53;5051870;28;20028;-81
2022/05/04 00:20:14;;;;;;;4.93;1.80;;;;;;;10.94;100.00;101355.59;5059690;28;20355;-78
2022/05/04 00:22:40;;;;;;;4.75;2.05;;;;;;;10.93;100.00;101345.03;5066817;28;20135;-78
2022/05/04 00:25:07;;;;;;;3.92;1.70;;;;;;;10.96;100.00;101340.13;5031074;28;20123;-77
2022/05/04 00:27:33;;;;;;;3.50;1.85;;;;;;;10.93;100.00;101337.78;5051474;28;20032;-79
2022/05/04 00:29:58;;;;;;;3.92;1.70;;;;;;;10.98;100.00;101348.91;5052488;28;20036;-79
2022/05/04 00:32:24;;;;;;;3.15;1.20;;;;;;;10.99;100.00;101341.66;5047610;28;20040;-80
2022/05/04 00:34:50;;;;;;;4.13;1.75;;;;;;;11.00;100.00;101346.88;5061689;28;20028;-78
2022/05/04 00:37:16;;;;;;;1.55;1.00;;;;;;;10.91;100.00;101320.13;5065775;28;20054;-78
2022/05/04 00:39:41;;;;;;;2.25;1.30;;;;;;;10.99;100.00;101337.13;5063520;28;20029;-77
2022/05/04 00:42:13;;;;;;;2.55;1.35;;;;;;;11.04;100.00;101351.94;5050861;28;20039;-78
2022/05/04 00:44:50;;;;;;;3.08;1.60;;;;;;;11.02;100.00;101343.19;5043908;28;20032;-78
2022/05/04 00:47:17;;;;;;;7.07;1.27;;;;;;;11.06;100.00;101356.16;5047697;28;20040;-78
2022/05/04 00:49:46;;;;;;;2.10;1.30;;;;;;;11.09;100.00;101353.13;5061622;28;20068;-80
2022/05/04 00:52:13;;;;;;;1.67;1.00;;;;;;;11.05;100.00;101354.44;5065569;28;20459;-80
2022/05/04 00:54:41;;;;;;;2.53;0.98;;;;;;;11.04;100.00;101355.47;5065430;28;20036;-78
2022/05/04 00:57:06;;;;;;;3.60;1.10;;;;;;;11.05;100.00;101361.69;5048053;28;20048;-78
2022/05/04 00:59:33;;;;;;;2.67;0.80;;;;;;;11.02;100.00;101359.34;5046858;28;20032;-78
2022/05/04 01:01:58;;;;;;;1.08;0.80;;;;;;;11.04;100.00;101363.53;5071247;28;20061;-79
2022/05/04 01:04:24;;;;;;;1.45;0.80;;;;;;;10.94;100.00;101366.38;5046483;28;20444;-78
2022/05/04 01:06:50;;;;;;;3.20;1.20;;;;;;;10.81;100.00;101346.31;5062688;28;20087;-78
2022/05/04 01:09:16;;;;;;;1.08;0.70;;;;;;;10.77;100.00;101352.03;5058567;28;20059;-79
2022/05/04 01:11:42;;;;;;;2.22;1.08;;;;;;;10.65;100.00;101355.16;5066436;28;20028;-80
2022/05/04 01:14:10;;;;;;;1.60;1.08;;;;;;;10.48;100.00;101349.72;5066362;28;20047;-78
2022/05/04 01:16:38;;;;;;;2.35;1.00;;;;;;;10.35;100.00;101352.00;5063421;28;20500;-79
2022/05/04 01:19:04;;;;;;;2.50;1.00;;;;;;;10.17;100.00;101348.50;5064088;28;20031;-80
2022/05/04 01:21:29;;;;;;;3.75;1.02;;;;;;;10.08;100.00;101361.88;5034794;28;20458;-81
2022/05/04 01:23:56;;;;;;;1.48;0.82;;;;;;;10.10;100.00;101361.72;5068592;28;20060;-79
2022/05/04 01:26:22;;;;;;;3.22;1.00;;;;;;;10.07;100.00;101360.19;5030756;28;20127;-80
2022/05/04 01:28:48;;;;;;;3.55;0.90;;;;;;;10.08;100.00;101361.88;5050091;28;20123;-80
2022/05/04 01:31:14;;;;;;;2.05;1.05;;;;;;;10.08;100.00;101350.28;5027936;28;20032;-79
2022/05/04 01:33:40;;;;;;;3.70;1.02;;;;;;;10.25;100.00;101364.69;5045454;28;20033;-79
2022/05/04 01:36:06;;;;;;;3.20;1.20;;;;;;;10.32;100.00;101369.28;5035520;28;20069;-80
2022/05/04 01:38:33;;;;;;;1.77;0.70;;;;;;;10.25;100.00;101354.75;5060129;28;20422;-80
2022/05/04 01:40:58;;;;;;;5.13;1.45;;;;;;;10.35;100.00;101354.69;5058798;28;20035;-81
2022/05/04 01:43:24;;;;;;;3.75;1.40;;;;;;;10.42;100.00;101369.16;5046392;28;20131;-79
2022/05/04 01:45:49;;;;;;;4.88;1.20;;;;;;;10.42;100.00;101354.88;5050458;28;20035;-80
2022/05/04 01:48:15;;;;;;;1.98;1.02;;;;;;;10.43;100.00;101359.28;5027255;28;20426;-79
2022/05/04 01:50:40;;;;;;;4.05;1.55;;;;;;;10.41;100.00;101364.78;5065294;28;20052;-79
2022/05/04 01:53:06;;;;;;;4.03;1.52;;;;;;;10.36;100.00;101359.06;5035556;28;20408;-81
2022/05/04 01:55:35;;;;;;;4.72;1.40;;;;;;;10.37;100.00;101359.88;5067304;28;20033;-78
2022/05/04 01:58:02;;;;;;;3.80;1.58;;;;;;;10.38;100.00;101361.59;5058302;28;20032;-79
2022/05/04 02:00:28;;;;;;;5.70;1.48;;;;;;;10.28;100.00;101354.47;5043158;28;20066;-78
2022/05/04 02:02:54;;;;;;;6.53;1.70;;;;;;;10.33;100.00;101360.22;5065170;28;20092;-79
2022/05/04 02:05:21;;;;;;;4.10;1.52;;;;;;;10.36;100.00;101361.75;5070303;28;20039;-77
2022/05/04 02:07:46;;;;;;;3.03;1.50;;;;;;;10.36;100.00;101364.44;5034484;28;20393;-78
2022/05/04 02:10:12;;;;;;;2.95;1.35;;;;;;;10.39;100.00;101365.94;5066701;28;20037;-78
2022/05/04 02:12:38;;;;;;;8.10;2.13;;;;;;;10.35;100.00;101360.06;5033908;28;20235;-80
2022/05/04 02:15:08;;;;;;;5.40;1.60;;;;;;;10.32;100.00;101358.53;5039437;28;20040;-80
2022/05/04 02:17:34;;;;;;;5.90;1.50;;;;;;;10.28;100.00;101345.56;5073126;28;20474;-81
2022/05/04 02:20:00;;;;;;;6.70;1.60;;;;;;;10.27;100.00;101346.56;5037256;28;22188;-79
2022/05/04 02:22:29;;;;;;;6.50;2.10;;;;;;;10.21;100.00;101344.47;5051848;28;20155;-78
2022/05/04 02:24:54;;;;;;;5.78;1.85;;;;;;;10.17;100.00;101338.59;5034219;28;20111;-78
2022/05/04 02:27:20;;;;;;;4.30;1.40;;;;;;;10.14;100.00;101341.59;5073182;28;20032;-80
2022/05/04 02:29:45;;;;;;;4.82;2.03;;;;;;;10.17;100.00;101353.88;5063400;28;20021;-79
2022/05/04 02:32:11;;;;;;;2.95;1.40;;;;;;;10.15;100.00;101367.47;5044987;28;20416;-79
2022/05/04 02:37:54;;;;;;;5.85;1.55;;;;;;;10.12;100.00;101360.56;5052292;28;20032;-80
2022/05/04 02:40:07;;;;;;;2.88;1.45;;;;;;;10.11;100.00;101361.56;5060535;28;20040;-78
2022/05/04 02:42:33;;;;;;;3.78;1.27;;;;;;;10.09;100.00;101352.81;5059950;28;20028;-81
2022/05/04 02:44:58;;;;;;;3.70;1.65;;;;;;;10.07;100.00;101353.97;5065482;28;20044;-79
2022/05/04 02:47:30;;;;;;;5.28;2.08;;;;;;;10.05;100.00;101345.22;5032506;28;20088;-79
2022/05/04 02:49:58;;;;;;;7.10;1.83;;;;;;;10.05;100.00;101348.75;5059502;28;20993;-78
2022/05/04 02:52:23;;;;;;;3.75;1.80;;;;;;;10.02;100.00;101342.84;5065408;28;20052;-80
2022/05/04 02:54:49;;;;;;;5.50;1.75;;;;;;;10.02;100.00;101335.63;5076071;28;20457;-81
2022/05/04 02:57:14;;;;;;;8.10;1.80;;;;;;;10.04;100.00;101344.38;5054832;28;20465;-78
2022/05/04 02:59:40;;;;;;;6.03;1.48;;;;;;;10.06;100.00;101350.44;5067155;28;20024;-78
2022/05/04 03:05:05;;;;;;;8.65;1.90;;;;;;;10.06;100.00;101347.75;5041564;28;20508;-84
2022/05/04 03:07:31;;;;;;;6.75;1.80;;;;;;;10.09;100.00;101349.28;5047194;28;20033;-80
2022/05/04 03:09:58;;;;;;;4.43;1.60;;;;;;;10.07;100.00;101348.59;5069245;28;20039;-79
2022/05/04 03:12:24;;;;;;;5.97;2.13;;;;;;;10.07;100.00;101354.81;5066764;28;20115;-80
2022/05/04 03:14:50;;;;;;;3.58;1.50;;;;;;;9.99;100.00;101335.94;5050568;28;20094;-79
2022/05/04 03:17:17;;;;;;;3.88;1.42;;;;;;;10.06;100.00;101353.13;5032026;28;20457;-79
2022/05/04 03:19:43;;;;;;;5.20;1.98;;;;;;;10.04;100.00;101365.88;5050099;28;20038;-79
2022/05/04 03:22:08;;;;;;;5.07;1.83;;;;;;;10.01;100.00;101355.44;5029652;28;20028;-80
2022/05/04 03:24:34;;;;;;;12.02;2.10;;;;;;;9.93;100.00;101350.03;5052235;28;20063;-80
2022/05/04 03:27:00;;;;;;;4.57;1.63;;;;;;;9.84;100.00;101348.25;5066644;28;20392;-80
2022/05/04 03:29:26;;;;;;;4.78;1.52;;;;;;;9.73;100.00;101351.22;5065140;28;20036;-83
2022/05/04 03:31:51;;;;;;;3.33;1.73;;;;;;;9.56;100.00;101351.06;5065738;28;20039;-79
2022/05/04 03:34:18;;;;;;;3.25;1.40;;;;;;;9.45;100.00;101349.47;5046883;28;20306;-81
2022/05/04 03:36:44;;;;;;;9.77;1.75;;;;;;;9.31;100.00;101338.41;5063384;28;20059;-78
2022/05/04 03:39:10;;;;;;;3.13;1.70;;;;;;;9.19;100.00;101349.38;5066636;28;20032;-81
2022/05/04 03:41:36;;;;;;;4.53;1.48;;;;;;;9.00;100.00;101346.84;5047254;28;20693;-78
2022/05/04 03:44:02;;;;;;;4.57;1.70;;;;;;;8.79;100.00;101342.59;5063434;28;20029;-78
2022/05/04 03:46:41;;;;;;;5.43;1.52;;;;;;;8.61;100.00;101344.38;5064449;28;20064;-81
2022/05/04 03:49:09;;;;;;;5.05;1.58;;;;;;;8.60;100.00;101342.72;5057175;28;20024;-79
2022/05/04 03:51:35;;;;;;;7.80;1.63;;;;;;;8.44;100.00;101339.78;5046353;28;20629;-81
2022/05/04 03:54:00;;;;;;;4.30;1.90;;;;;;;8.31;100.00;101343.63;5037492;28;20028;-78
2022/05/04 03:56:26;;;;;;;4.80;1.50;;;;;;;8.21;100.00;101334.78;5023545;28;20033;-80
2022/05/04 03:58:51;;;;;;;3.17;1.48;;;;;;;8.24;100.00;101337.16;5044628;28;20036;-80
2022/05/04 04:01:18;;;;;;;4.97;1.70;;;;;;;8.22;100.00;101344.50;5046707;28;20048;-81
2022/05/04 04:03:44;;;;;;;5.20;1.58;;;;;;;8.20;100.00;101359.03;5065897;28;20056;-80
2022/05/04 04:06:10;;;;;;;4.82;1.50;;;;;;;8.21;100.00;101363.41;5066572;28;20106;-80
2022/05/04 04:08:36;;;;;;;3.75;1.58;;;;;;;8.19;100.00;101360.88;5068018;28;20476;-79
2022/05/04 04:11:03;;;;;;;5.93;1.73;;;;;;;8.23;100.00;101353.38;5068018;28;20067;-81
2022/05/04 04:13:29;;;;;;;4.78;1.90;;;;;;;8.24;100.00;101347.88;5065932;28;20044;-81
2022/05/04 04:15:56;;;;;;;6.20;1.70;;;;;;;8.36;100.00;101349.41;5066221;28;20060;-82
2022/05/04 04:18:26;;;;;;;5.28;1.80;;;;;;;8.45;100.00;101360.25;5061778;28;20036;-78
2022/05/04 04:23:38;;;;;;;8.02;2.15;;;;;;;8.46;100.00;101364.63;5051175;28;20044;-79
2022/05/04 04:26:05;;;;;;;5.53;1.42;;;;;;;8.38;100.00;101368.00;5068284;28;20107;-79
2022/05/04 04:28:31;;;;;;;4.93;1.60;;;;;;;8.31;100.00;101370.44;5047299;28;20037;-81
2022/05/04 04:30:57;;;;;;;14.60;2.20;;;;;;;8.19;100.00;101349.31;5070652;28;20032;-81
2022/05/04 04:33:26;;;;;;;7.50;1.77;;;;;;;8.41;100.00;101361.53;5029080;28;20389;-79
2022/05/04 04:35:59;;;;;;;9.15;1.88;;;;;;;8.58;100.00;101361.59;5070095;28;20162;-80
2022/05/04 04:38:28;;;;;;;6.53;2.20;;;;;;;8.74;100.00;101369.00;5073646;28;20024;-78
2022/05/04 04:40:53;;;;;;;6.50;2.10;;;;;;;8.71;100.00;101363.94;5068337;28;20397;-79
2022/05/04 04:43:19;;;;;;;7.60;1.90;;;;;;;8.62;100.00;101356.78;5051743;28;20041;-81
2022/05/04 04:45:46;;;;;;;7.85;2.05;;;;;;;8.50;100.00;101364.19;5054026;28;20047;-82
2022/05/04 04:48:13;;;;;;;10.60;1.98;;;;;;;8.38;100.00;101376.88;5052877;28;20452;-82
2022/05/04 04:50:39;;;;;;;7.60;2.30;;;;;;;8.42;100.00;101388.19;5071597;28;20458;-80
2022/05/04 04:53:04;;;;;;;6.10;2.05;;;;;;;8.32;100.00;101348.00;5065895;28;20044;-79
2022/05/04 04:55:30;;;;;;;5.88;2.17;;;;;;;8.50;100.00;101369.53;5070904;28;20647;-82
2022/05/04 04:57:55;;;;;;;7.68;2.33;;;;;;;8.57;100.00;101380.50;5068445;28;20028;-81
2022/05/04 05:00:21;;;;;;;6.13;2.30;;;;;;;8.46;100.00;101372.66;5057863;28;20487;-79
2022/05/04 05:02:47;;;;;;;9.23;3.03;;;;;;;8.46;100.00;101389.56;5050933;28;20068;-77
2022/05/04 05:05:13;;;;;;;6.35;1.98;;;;;;;8.41;100.00;101374.94;5088987;28;20052;-80
2022/05/04 05:07:39;;;;;;;7.80;2.22;;;;;;;8.28;100.00;101381.44;5088700;28;20074;-78
2022/05/04 05:10:05;;;;;;;6.85;2.17;;;;;;;8.18;100.00;101387.78;5077071;28;20046;-79
2022/05/04 05:12:32;;;;;;;5.75;2.17;;;;;;;8.19;100.00;101395.69;5068304;28;20063;-79
2022/05/04 05:17:42;;;;;;;14.27;3.13;;;;;;;8.16;100.00;101393.31;5047271;28;20032;-78
2022/05/04 05:20:08;;;;;;;6.78;2.60;;;;;;;8.12;100.00;101387.41;5072438;28;20035;-80
2022/05/04 05:22:34;;;;;;;11.93;2.53;;;;;;;8.23;100.00;101398.91;5049874;28;20036;-82
2022/05/04 05:24:59;;;;;;;4.68;1.80;;;;;;;8.34;100.00;101406.81;5059304;28;20359;-80
2022/05/04 05:27:25;;;;;;;8.07;2.20;;;;;;;8.34;100.00;101407.66;5053099;28;20458;-81
2022/05/04 05:29:50;;;;;;;6.93;2.20;;;;;;;8.41;100.00;101409.75;5068939;28;20461;-79
2022/05/04 05:32:16;;;;;;;6.55;2.10;;;;;;;8.51;100.00;101418.63;5061460;28;20047;-78
2022/05/04 05:34:42;;;;;;;10.35;2.40;;;;;;;8.66;100.00;101427.88;5066354;28;20029;-80
2022/05/04 05:37:07;;;;;;;9.23;1.90;;;;;;;8.79;100.00;101425.72;5068598;28;20084;-80
2022/05/04 05:39:33;;;;;;;13.93;2.65;;;;;;;8.88;100.00;101421.28;5063716;28;20032;-79
2022/05/04 05:41:59;;;;;;;7.40;2.80;;;;;;;8.92;100.00;101419.19;5028850;28;20490;-78
2022/05/04 05:44:25;;;;;;;8.73;2.30;;;;;;;8.98;100.00;101431.97;5064137;28;20466;-78
2022/05/04 05:46:51;;;;;;;9.75;2.40;;;;;;;8.88;100.00;101431.19;5066138;28;20054;-79
2022/05/04 05:49:16;;;;;;;10.45;2.40;;;;;;;8.82;100.00;101429.94;5066432;28;20036;-79
2022/05/04 05:51:42;;;;;;;7.55;2.63;;;;;;;8.88;100.00;101423.97;5064196;28;20090;-83
2022/05/04 05:54:08;;;;;;;4.57;2.35;;;;;;;9.39;100.00;101437.81;5050324;28;20485;-82
2022/05/04 05:56:33;;;;;;;6.07;1.95;;;;;;;10.45;100.00;101437.91;5038555;28;20036;-78
2022/05/04 05:58:59;;;;;;;8.20;2.10;;;;;;;10.82;100.00;101434.91;5072954;28;20531;-79
2022/05/04 06:01:24;;;;;;;6.75;2.28;;;;;;;10.85;100.00;101429.22;5029562;28;20473;-80
2022/05/04 06:03:52;;;;;;;6.13;2.40;;;;;;;11.11;100.00;101429.13;5063326;28;20028;-80
2022/05/04 06:06:18;;;;;;;6.00;2.00;;;;;;;10.91;100.00;101414.28;5028769;28;20094;-79
2022/05/04 06:08:43;;;;;;;5.70;1.67;;;;;;;10.56;100.00;101433.13;5065506;28;20040;-79
2022/05/04 06:11:09;;;;;;;6.35;2.08;;;;;;;10.27;100.00;101429.88;5053105;28;20026;-81
2022/05/04 06:13:34;;;;;;;10.40;2.22;;;;;;;10.10;100.00;101445.00;5052298;28;20400;-78
2022/05/04 06:16:00;;;;;;;7.97;2.20;;;;;;;10.01;100.00;101443.28;5050929;28;20432;-79
2022/05/04 06:18:26;;;;;;;8.35;2.42;;;;;;;10.09;100.00;101437.97;5047116;28;20028;-79
2022/05/04 06:20:51;;;;;;;4.70;2.20;;;;;;;10.18;100.00;101446.91;5046687;28;20029;-81
2022/05/04 06:23:17;;;;;;;5.68;2.28;;;;;;;10.25;100.00;101453.38;5034620;28;20067;-82
2022/05/04 06:25:45;;;;;;;9.05;2.28;;;;;;;10.28;100.00;101463.84;5033293;28;20039;-81
2022/05/04 06:28:11;;;;;;;9.30;2.80;;;;;;;10.29;100.00;101462.81;5064908;28;20039;-78
2022/05/04 06:36:05;;;;;;;8.15;2.97;;;;;;;11.08;100.00;101464.47;5051040;28;20036;-80
2022/05/04 06:38:31;;;;;;;7.68;2.17;;;;;;;11.97;100.00;101471.13;5066816;28;20470;-79
2022/05/04 06:40:57;;;;;;;8.50;3.08;;;;;;;11.94;100.00;101470.63;5050628;28;20040;-79
2022/05/04 06:43:23;;;;;;;4.95;2.03;;;;;;;11.60;100.00;101461.59;5031234;28;20171;-80
2022/05/04 06:45:49;;;;;;;7.60;2.17;;;;;;;11.05;100.00;101427.13;5066735;28;20123;-83
2022/05/04 06:48:15;;;;;;;5.18;2.15;;;;;;;11.17;100.00;101466.19;5053127;28;20561;-79
2022/05/04 06:50:40;;;;;;;6.30;2.50;;;;;;;11.18;100.00;101475.94;5063593;28;20104;-81
2022/05/04 06:53:06;;;;;;;10.18;2.50;;;;;;;11.06;100.00;101482.66;5059758;28;20031;-79
2022/05/04 06:55:32;;;;;;;5.82;2.35;;;;;;;11.00;100.00;101480.56;5046602;28;20093;-77
2022/05/04 06:57:57;;;;;;;7.93;1.90;;;;;;;11.10;100.00;101492.06;5060447;28;20097;-79
2022/05/04 07:00:23;;;;;;;7.00;2.38;;;;;;;11.39;100.00;101493.53;5064573;28;20044;-82
2022/05/04 07:02:48;;;;;;;6.13;1.92;;;;;;;11.72;100.00;101494.44;5045810;28;20436;-79
2022/05/04 07:05:14;;;;;;;9.80;2.40;;;;;;;11.88;100.00;101494.53;5063786;28;20075;-80
2022/05/04 07:07:42;;;;;;;6.38;2.05;;;;;;;11.96;100.00;101496.38;5055033;28;20029;-80
2022/05/04 07:10:08;;;;;;;6.43;2.20;;;;;;;12.04;100.00;101492.84;5063438;28;20066;-80
2022/05/04 07:12:34;;;;;;;4.60;2.08;;;;;;;11.94;100.00;101502.97;5045732;28;20127;-80
2022/05/04 07:15:00;;;;;;;2.72;1.02;;;;;;;11.84;100.00;101508.47;5053036;28;20087;-82
2022/05/04 07:20:49;;;;;;;2.20;0.88;;;;;;;11.36;100.00;101527.00;5022922;28;20098;-81
2022/05/04 07:23:15;;;;;;;1.83;0.70;;;;;;;11.28;100.00;101524.28;5066825;28;20028;-79
2022/05/04 07:25:41;;;;;;;1.20;0.77;;;;;;;11.21;100.00;101517.84;5063209;28;20036;-81
2022/05/04 07:28:06;;;;;;;1.52;0.80;;;;;;;11.37;100.00;101542.16;5046544;28;20051;-82
2022/05/04 07:30:32;;;;;;;6.22;0.93;;;;;;;11.41;100.00;101532.75;5062337;28;20044;-82
2022/05/04 07:32:58;;;;;;;1.42;0.93;;;;;;;11.53;100.00;101527.91;5067039;28;20067;-80
2022/05/04 07:35:23;;;;;;;2.53;1.10;;;;;;;11.64;100.00;101535.69;5044988;28;20044;-81
2022/05/04 07:37:49;;;;;;;4.53;1.00;;;;;;;11.77;100.00;101534.38;5052662;28;20036;-80
2022/05/04 07:42:58;;;;;;;3.38;1.27;;;;;;;12.05;100.00;101534.97;5054223;28;20039;-79
2022/05/04 07:45:24;;;;;;;4.20;1.88;;;;;;;12.20;100.00;101522.53;5042370;28;20028;-78
2022/05/04 07:47:50;;;;;;;1.75;0.95;;;;;;;12.16;100.00;101545.41;5068244;28;20033;-78
2022/05/04 07:50:17;;;;;;;5.63;1.75;;;;;;;11.95;100.00;101545.91;5045797;28;20102;-78
2022/05/04 07:52:43;;;;;;;4.80;1.30;;;;;;;11.86;100.00;101542.34;5066272;28;20040;-82
2022/05/04 07:55:10;;;;;;;9.15;1.92;;;;;;;11.86;100.00;101547.75;5072996;28;20032;-80
2022/05/04 07:57:54;;;;;;;7.78;2.67;;;;;;;11.70;100.00;101531.50;5052664;28;20032;-81
2022/05/04 08:05:48;;;;;;;4.65;1.80;;;;;;;12.11;100.00;101542.38;5070790;28;20024;-83
2022/05/04 08:08:14;;;;;;;7.80;2.75;;;;;;;12.19;100.00;101542.38;5040620;28;20047;-81
2022/05/04 08:10:40;;;;;;;10.27;2.72;;;;;;;12.45;100.00;101547.63;5054197;28;20138;-79
2022/05/04 08:13:06;;;;;;;10.48;3.25;;;;;;;12.59;100.00;101543.41;5055986;28;20489;-81
2022/05/04 08:15:32;;;;;;;10.25;2.78;;;;;;;13.42;98.52;101544.94;5064696;28;20048;-82
2022/05/04 08:17:58;;;;;;;8.57;2.60;;;;;;;13.23;100.00;101561.50;5037030;28;20489;-79
2022/05/04 08:20:25;;;;;;;9.32;2.47;;;;;;;13.25;99.14;101564.88;5031872;28;20154;-81
2022/05/04 08:22:51;;;;;;;9.07;4.50;;;;;;;13.37;98.22;101566.22;5059552;28;20094;-82
2022/05/04 08:25:17;;;;;;;14.32;3.10;;;;;;;13.48;99.88;101565.00;5064984;28;20032;-81
2022/05/04 08:27:44;;;;;;;14.05;2.83;;;;;;;13.59;88.63;101551.94;5031382;28;20465;-80
2022/05/04 08:30:10;;;;;;;8.43;3.13;;;;;;;14.41;83.29;101547.84;5034925;28;20123;-80
2022/05/04 08:32:37;;;;;;;6.75;3.53;;;;;;;14.65;74.65;101563.91;5067557;28;20029;-81
2022/05/04 08:35:03;;;;;;;13.27;3.65;;;;;;;15.15;79.67;101569.69;5053863;28;20496;-81
2022/05/04 08:37:28;;;;;;;12.20;3.38;;;;;;;14.98;77.29;101570.88;5059533;28;20031;-81
2022/05/04 08:39:55;;;;;;;12.98;3.08;;;;;;;15.17;82.20;101575.75;5052611;28;20041;-80
2022/05/04 08:42:21;;;;;;;9.55;3.10;;;;;;;15.06;78.39;101577.06;5051984;28;20123;-82
2022/05/04 08:44:52;;;;;;;12.40;2.95;;;;;;;14.84;83.03;101573.38;5066624;28;20116;-81
2022/05/04 08:47:21;;;;;;;6.85;2.30;;;;;;;14.77;75.55;101583.28;5049261;28;20044;-82
2022/05/04 08:49:49;;;;;;;9.20;3.90;;;;;;;14.46;73.86;101584.16;5067393;28;20044;-80
2022/05/04 08:52:15;;;;;;;10.73;3.10;;;;;;;14.04;79.13;101587.34;5052301;28;20040;-82
2022/05/04 08:54:44;;;;;;;15.77;3.30;;;;;;;13.74;80.63;101592.56;5033388;28;20029;-82
2022/05/04 08:57:09;;;;;;;13.63;3.00;;;;;;;13.73;78.18;101587.34;5046149;28;20390;-82
2022/05/04 08:59:35;;;;;;;14.00;3.25;;;;;;;13.85;79.27;101585.94;5068015;28;20036;-81
2022/05/04 09:02:01;;;;;;;11.07;2.60;;;;;;;14.79;71.92;101589.34;5070953;28;20029;-84
2022/05/04 09:04:30;;;;;;;13.13;3.65;;;;;;;15.36;70.73;101586.03;5067505;28;20074;-82
2022/05/04 09:06:56;;;;;;;9.70;3.30;;;;;;;16.76;65.95;101574.03;5072484;28;20028;-83
2022/05/04 09:09:22;;;;;;;18.65;3.85;;;;;;;17.76;61.51;101583.66;5046833;28;20080;-85
2022/05/04 09:11:48;;;;;;;20.02;3.03;;;;;;;17.50;60.67;101572.66;5073125;28;20064;-80
2022/05/04 09:14:20;;;;;;;11.25;3.33;;;;;;;17.20;58.99;101569.34;5068611;28;20550;-81
2022/05/04 09:16:46;;;;;;;17.25;3.85;;;;;;;16.68;59.97;101572.28;5047338;28;20039;-83
2022/05/04 09:19:14;;;;;;;12.63;3.60;;;;;;;16.26;60.99;101579.44;5045098;28;20036;-82
2022/05/04 09:21:41;;;;;;;9.75;3.83;;;;;;;15.89;60.81;101560.66;5037116;28;20052;-82
2022/05/04 09:24:07;;;;;;;13.70;3.78;;;;;;;15.58;62.69;101556.28;5049316;28;20036;-81
2022/05/04 09:26:39;;;;;;;15.50;4.57;;;;;;;16.01;62.14;101565.41;5062738;28;20025;-81
2022/05/04 09:29:09;;;;;;;8.45;2.63;;;;;;;16.06;60.54;101572.94;5036095;28;20037;-80
2022/05/04 09:31:34;;;;;;;11.80;3.30;;;;;;;16.17;61.18;101591.44;5065494;28;20521;-81
2022/05/04 09:34:07;;;;;;;6.82;3.78;;;;;;;16.30;60.08;101573.59;5071438;28;20032;-81
2022/05/04 09:44:54;;;;;;;14.98;3.80;;;;;;;16.25;60.95;101590.50;5065320;28;20032;-81
2022/05/04 09:45:12;;;;;;;14.13;3.88;;;;;;;15.90;62.35;101582.16;5068012;28;20040;-82
2022/05/04 09:47:45;;;;;;;13.57;3.27;;;;;;;16.29;60.43;101594.47;5071561;28;20036;-81
2022/05/04 09:50:12;;;;;;;13.68;3.65;;;;;;;16.27;61.49;101585.69;5053877;28;20082;-81
2022/05/04 09:52:43;;;;;;;13.18;4.32;;;;;;;16.49;60.58;101591.97;5070369;28;20047;-80
2022/05/04 09:55:17;;;;;;;10.43;3.80;;;;;;;16.54;60.34;101594.09;5052568;28;20425;-84
2022/05/04 09:57:44;;;;;;;16.25;3.88;;;;;;;16.62;61.71;101586.66;5077256;28;20028;-81
2022/05/04 10:00:10;;;;;;;13.57;2.97;;;;;;;16.76;58.97;101584.91;5054307;28;20032;-82
2022/05/04 10:02:37;;;;;;;13.48;4.05;;;;;;;16.99;56.70;101583.81;5036956;28;20086;-81
2022/05/04 10:05:04;;;;;;;13.70;3.60;;;;;;;17.02;57.38;101586.19;5064085;28;20047;-85
2022/05/04 10:07:30;;;;;;;13.60;3.50;;;;;;;16.92;56.12;101594.66;5045203;28;20041;-85
2022/05/04 10:09:56;;;;;;;10.38;2.80;;;;;;;17.21;55.23;101593.63;5021854;28;20478;-83
2022/05/04 10:12:21;;;;;;;11.85;3.75;;;;;;;19.37;49.55;101590.94;5072621;28;20032;-85
2022/05/04 10:14:47;;;;;;;14.23;3.75;;;;;;;21.39;42.79;101595.75;5051946;28;20036;-83
2022/05/04 10:17:20;;;;;;;11.27;3.60;;;;;;;21.30;41.18;101592.44;5043827;28;20033;-83
2022/05/04 10:19:50;;;;;;;11.10;3.90;;;;;;;22.18;40.72;101593.91;5049527;28;20052;-85
2022/05/04 10:22:26;;;;;;;6.70;2.97;;;;;;;21.34;41.34;101601.03;5068944;28;20037;-85
2022/05/04 10:24:54;;;;;;;11.88;3.28;;;;;;;20.59;43.31;101599.22;5068014;28;20059;-82
2022/05/04 10:27:22;;;;;;;7.13;3.20;;;;;;;20.83;42.08;101597.53;5048262;28;20033;-85
2022/05/04 10:32:37;;;;;;;14.77;4.68;;;;;;;22.68;38.62;101599.06;5047668;28;20024;-82
2022/05/04 10:35:21;;;;;;;12.57;3.97;;;;;;;23.22;37.62;101599.81;5051899;28;20048;-83
2022/05/04 10:37:55;;;;;;;8.50;3.67;;;;;;;23.97;36.52;101600.88;5048243;28;20036;-84
2022/05/04 10:40:34;;;;;;;7.32;3.22;;;;;;;23.20;36.88;101604.72;5045359;28;20059;-84
2022/05/04 10:43:17;;;;;;;11.95;3.75;;;;;;;22.33;38.79;101608.06;5047652;28;20032;-86
2022/05/04 10:45:47;;;;;;;16.10;3.85;;;;;;;21.74;39.82;101585.84;5046339;28;20040;-83
2022/05/04 10:48:19;;;;;;;17.48;4.50;;;;;;;21.42;40.58;101611.72;5047446;28;20115;-84
2022/05/04 10:51:22;;;;;;;10.57;3.65;;;;;;;22.07;39.05;101606.50;5063083;28;20032;-85
2022/05/04 10:53:50;;;;;;;18.35;4.25;;;;;;;22.89;38.05;101610.53;5061165;28;20036;-85
2022/05/04 10:56:27;;;;;;;15.93;5.00;;;;;;;22.91;37.16;101595.50;5059188;28;20025;-83
2022/05/04 10:59:01;;;;;;;15.68;4.25;;;;;;;23.18;36.81;101589.56;5060734;28;20039;-84
2022/05/04 11:01:36;;;;;;;10.02;3.63;;;;;;;23.44;35.91;101591.78;5061777;28;20078;-85
2022/05/04 11:04:10;;;;;;;13.18;3.80;;;;;;;24.33;35.43;101587.81;5049578;28;20064;-86
2022/05/04 11:06:47;;;;;;;10.27;3.70;;;;;;;24.78;34.57;101582.28;5052743;28;20094;-84
2022/05/04 11:09:16;;;;;;;13.27;4.00;;;;;;;24.10;33.87;101570.34;5052487;28;20163;-84
2022/05/04 11:11:47;;;;;;;11.52;3.45;;;;;;;23.73;35.34;101599.28;5048472;28;20123;-84
2022/05/04 11:14:14;;;;;;;10.60;3.67;;;;;;;24.60;33.80;101593.53;5045217;28;20027;-84
2022/05/04 11:16:41;;;;;;;15.43;4.18;;;;;;;25.21;33.38;101588.16;5066172;28;20052;-87
2022/05/04 11:19:07;;;;;;;11.70;3.65;;;;;;;26.05;31.46;101553.97;5072134;28;20103;-84
2022/05/04 11:21:34;;;;;;;10.35;3.83;;;;;;;25.40;32.16;101559.28;5075233;28;20035;-84
2022/05/04 11:24:02;;;;;;;11.70;4.55;;;;;;;24.62;33.84;101579.53;5045240;28;20465;-84
2022/05/04 11:26:33;;;;;;;13.25;3.92;;;;;;;22.85;37.43;101598.38;5066292;28;20040;-84
2022/05/04 11:28:59;;;;;;;11.30;3.85;;;;;;;21.93;39.59;101591.28;5074993;28;20036;-84
2022/05/04 11:31:25;;;;;;;10.38;4.25;;;;;;;24.62;35.47;101585.88;5038994;28;20071;-85
2022/05/04 11:33:51;;;;;;;14.93;4.72;;;;;;;26.24;31.61;101579.25;5041795;28;20094;-86
2022/05/04 11:36:21;;;;;;;14.05;4.20;;;;;;;27.39;28.97;101600.88;5080177;28;20032;-84
2022/05/04 11:38:48;;;;;;;11.55;3.78;;;;;;;27.83;29.11;101597.75;5030871;28;20140;-84
2022/05/04 11:41:15;;;;;;;10.43;4.13;;;;;;;26.79;30.51;101588.28;5024602;28;20130;-83
2022/05/04 11:43:40;;;;;;;8.23;3.05;;;;;;;25.35;31.70;101586.72;5035904;28;20032;-85
2022/05/04 11:46:09;;;;;;;13.55;3.75;;;;;;;24.78;33.40;101592.44;5048204;28;20100;-84
2022/05/04 11:48:42;;;;;;;32.30;6.00;;;;;;;25.18;32.00;101591.44;5032415;28;20079;-85
2022/05/04 11:51:10;;;;;;;32.45;5.07;;;;;;;25.34;32.32;101603.50;5060119;28;20067;-84
2022/05/04 11:53:39;;;;;;;14.27;4.00;;;;;;;24.42;35.18;101590.97;5047036;28;20107;-85
2022/05/04 11:56:06;;;;;;;11.15;3.70;;;;;;;25.02;33.96;101591.19;5074734;28;20048;-87